PBO weather

Paraburdoo Airport
Paraburdoo, Western Australia, Australia

Public forecast

Using degrees Celsius for public forecast. Weather courtesy of forecast.io.

METAR (pilot weather report)

Retrieved 2019/04/25 11:00 UTC (22 minutes ago):

YPBO 251100Z AUTO 12008KT 9999 // NCD 30/M01 Q1016

TAF (pilot weather forecast)

Closest forecast is Learmonth Airport, 210.1 nm (389.2 km) WNW. Retrieved 2019/04/25 06:00 UTC (5 hours ago):

TAF YPLM 250431Z 2506/2606 03010KT CAVOK FM251000 23010KT CAVOK FM252000 11010KT CAVOK FM260300 04011KT CAVOK